Auburn, Alabama
Current Conditions -  °F | °C
As of 5:55 AM on Wednesday 28 Jan 2015 (Local Time) from KAUO Reporting Station
Clear Clear  
Wind Chill: -6°   Ceiling: Unl
Heat Index: -1°   Visibility: 10mi
Dew Point: -5°   Wind: 9mph
Humidity: 75%   Direction: 20°NNE
Pressure: 30.21"   Gusts: NA
Location:  32.61°N, 85.48°W
Report Text: KAUO 281155Z AUTO 02008KT 10SM CLR M01/M05 A3021 RMK AO1 10030 21010 52014
Loading
Personal Weather Stations






























Interactive Weather Map New forecast layout! Learn more

10-Day Weather Forecast

Advertisements
Track Severe Weather on mobile